createdAt,value
2023-05-03T00:01:42.774Z,0.00
2023-05-03T00:04:09.959Z,0.00
2023-05-03T00:06:36.755Z,0.00
2023-05-03T00:09:03.414Z,0.00
2023-05-03T00:11:30.028Z,0.00
2023-05-03T00:13:56.828Z,0.00
2023-05-03T00:16:23.597Z,0.00
2023-05-03T00:18:50.453Z,0.00
2023-05-03T00:21:17.216Z,1.00
2023-05-03T00:23:43.756Z,0.00
2023-05-03T00:26:10.935Z,0.00
2023-05-03T00:28:39.108Z,0.00
2023-05-03T00:31:09.588Z,1.00
2023-05-03T00:33:37.005Z,0.00
2023-05-03T00:36:08.443Z,0.00
2023-05-03T00:38:35.706Z,0.33
2023-05-03T00:41:02.968Z,0.50
2023-05-03T00:43:29.558Z,0.00
2023-05-03T00:46:04.893Z,0.33
2023-05-03T00:48:42.287Z,0.00
2023-05-03T00:51:08.827Z,0.33
2023-05-03T00:53:35.813Z,0.00
2023-05-03T00:56:02.784Z,0.00
2023-05-03T00:58:30.253Z,0.00
2023-05-03T01:00:57.027Z,1.00
2023-05-03T01:03:23.986Z,0.00
2023-05-03T01:06:31.967Z,1.00
2023-05-03T01:09:00.165Z,0.00
2023-05-03T01:11:37.211Z,1.00
2023-05-03T01:14:28.154Z,1.00
2023-05-03T01:16:57.956Z,0.00
2023-05-03T01:19:39.661Z,0.00
2023-05-03T01:22:33.453Z,0.00
2023-05-03T01:25:20.929Z,1.00
2023-05-03T01:27:48.200Z,0.00
2023-05-03T01:30:14.936Z,0.00
2023-05-03T01:32:41.691Z,0.00
2023-05-03T01:35:11.567Z,1.00
2023-05-03T01:37:38.402Z,1.00
2023-05-03T01:40:09.298Z,0.00
2023-05-03T01:42:36.403Z,0.00
2023-05-03T01:45:03.908Z,0.67
2023-05-03T01:47:30.849Z,1.00
2023-05-03T01:49:59.098Z,1.00
2023-05-03T01:52:26.422Z,0.00
2023-05-03T01:54:53.046Z,1.00
2023-05-03T01:57:19.672Z,1.00
2023-05-03T01:59:46.280Z,0.00
2023-05-03T02:02:12.966Z,1.00
2023-05-03T02:04:40.685Z,1.00
2023-05-03T02:07:07.267Z,1.00
2023-05-03T02:09:33.896Z,0.33
2023-05-03T02:12:00.700Z,0.00
2023-05-03T02:14:28.209Z,0.00
2023-05-03T02:16:55.260Z,1.00
2023-05-03T02:19:21.807Z,0.00
2023-05-03T02:21:48.326Z,1.00
2023-05-03T02:24:15.997Z,0.00
2023-05-03T02:26:42.937Z,0.00
2023-05-03T02:29:09.789Z,1.00
2023-05-03T02:31:36.504Z,1.00
2023-05-03T02:34:03.461Z,1.00
2023-05-03T02:36:30.507Z,1.00
2023-05-03T02:38:57.462Z,1.00
2023-05-03T02:41:24.512Z,0.00
2023-05-03T02:43:51.170Z,0.00
2023-05-03T02:46:18.335Z,0.00
2023-05-03T02:48:44.937Z,1.00
2023-05-03T02:51:11.945Z,1.00
2023-05-03T02:53:38.458Z,0.33
2023-05-03T02:56:05.691Z,1.00
2023-05-03T02:58:32.663Z,1.00
2023-05-03T03:00:59.681Z,1.00
2023-05-03T03:03:27.709Z,0.00
2023-05-03T03:05:54.293Z,1.00
2023-05-03T03:08:21.972Z,1.00
2023-05-03T03:10:48.973Z,1.00
2023-05-03T03:13:16.599Z,0.75
2023-05-03T03:15:43.546Z,0.67
2023-05-03T03:18:10.156Z,1.00
2023-05-03T03:20:36.995Z,0.00
2023-05-03T03:23:03.894Z,1.00
2023-05-03T03:25:31.646Z,1.00
2023-05-03T03:27:58.845Z,1.00
2023-05-03T03:30:25.557Z,0.00
2023-05-03T03:32:57.813Z,1.00
2023-05-03T03:35:28.111Z,0.00
2023-05-03T03:37:54.784Z,1.00
2023-05-03T03:40:22.092Z,1.00
2023-05-03T03:42:49.522Z,0.00
2023-05-03T03:45:16.281Z,0.67
2023-05-03T03:47:43.698Z,1.00
2023-05-03T03:50:10.660Z,1.00
2023-05-03T03:52:38.078Z,0.00
2023-05-03T03:55:06.022Z,0.00
2023-05-03T03:57:33.087Z,1.00
2023-05-03T04:00:00.922Z,1.00
2023-05-03T04:02:28.412Z,1.00
2023-05-03T04:04:55.540Z,1.00
2023-05-03T04:07:22.118Z,0.00
2023-05-03T04:09:49.278Z,1.00
2023-05-03T04:12:16.584Z,1.00
2023-05-03T04:14:45.210Z,0.00
2023-05-03T04:17:12.009Z,0.67
2023-05-03T04:19:38.785Z,0.67
2023-05-03T04:22:05.578Z,1.00
2023-05-03T04:24:32.225Z,1.00
2023-05-03T04:27:03.730Z,1.00
2023-05-03T04:29:30.536Z,1.00
2023-05-03T04:31:57.251Z,1.00
2023-05-03T04:34:24.286Z,1.00
2023-05-03T04:36:52.898Z,1.67
2023-05-03T04:39:19.674Z,2.00
2023-05-03T04:41:46.847Z,1.67
2023-05-03T04:44:13.777Z,2.00
2023-05-03T04:46:41.380Z,2.00
2023-05-03T04:49:08.265Z,3.00
2023-05-03T04:51:35.516Z,2.00
2023-05-03T04:54:02.655Z,3.00
2023-05-03T04:56:29.599Z,2.00
2023-05-03T04:59:03.875Z,2.00
2023-05-03T05:01:30.746Z,3.00
2023-05-03T05:04:00.537Z,3.00
2023-05-03T05:06:33.185Z,3.00
2023-05-03T05:09:01.588Z,3.00
2023-05-03T05:11:28.360Z,3.00
2023-05-03T05:13:55.890Z,2.00
2023-05-03T05:16:22.594Z,2.00
2023-05-03T05:18:52.243Z,4.00
2023-05-03T05:21:20.071Z,3.00
2023-05-03T05:23:47.225Z,2.67
2023-05-03T05:26:14.018Z,3.00
2023-05-03T05:28:41.035Z,3.00
2023-05-03T05:31:07.620Z,2.00
2023-05-03T05:33:35.170Z,2.00
2023-05-03T05:36:03.759Z,2.75
2023-05-03T05:38:31.294Z,3.00
2023-05-03T05:40:58.114Z,3.50
2023-05-03T05:43:25.251Z,2.00
2023-05-03T05:45:51.946Z,2.00
2023-05-03T05:48:19.182Z,2.67
2023-05-03T05:50:46.244Z,3.00
2023-05-03T05:53:13.511Z,2.00
2023-05-03T05:55:44.110Z,3.00
2023-05-03T05:58:12.386Z,2.00
2023-05-03T06:00:43.274Z,3.00
2023-05-03T06:03:10.034Z,3.00
2023-05-03T06:05:36.753Z,3.00
2023-05-03T06:08:03.964Z,4.00
2023-05-03T06:10:30.929Z,3.00
2023-05-03T06:12:57.839Z,3.00
2023-05-03T06:15:26.222Z,3.33
2023-05-03T06:17:53.099Z,4.00
2023-05-03T06:20:19.913Z,4.00
2023-05-03T06:22:48.042Z,3.00
2023-05-03T06:25:17.856Z,3.00
2023-05-03T06:27:47.695Z,3.00
2023-05-03T06:30:15.019Z,2.00
2023-05-03T06:32:42.370Z,4.00
2023-05-03T06:35:09.611Z,3.00
2023-05-03T06:37:37.831Z,3.00
2023-05-03T06:40:06.913Z,4.00
2023-05-03T06:42:33.592Z,4.00
2023-05-03T06:45:07.911Z,4.00
2023-05-03T06:47:39.469Z,3.67
2023-05-03T06:50:06.596Z,2.67
2023-05-03T06:52:33.727Z,2.33
2023-05-03T06:55:00.771Z,2.00
2023-05-03T06:57:28.779Z,2.00
2023-05-03T06:59:55.701Z,2.00
2023-05-03T07:02:22.778Z,2.00
2023-05-03T07:04:50.097Z,1.00
2023-05-03T07:07:17.035Z,1.33
2023-05-03T07:09:44.181Z,1.00
2023-05-03T07:12:11.333Z,0.00
2023-05-03T07:14:39.047Z,2.00
2023-05-03T07:17:05.973Z,1.00
2023-05-03T07:19:32.662Z,1.67
2023-05-03T07:21:59.336Z,1.00
2023-05-03T07:24:25.987Z,1.00
2023-05-03T07:26:53.136Z,1.00
2023-05-03T07:29:20.201Z,1.00
2023-05-03T07:31:46.832Z,2.00
2023-05-03T07:34:13.760Z,2.00
2023-05-03T07:36:40.672Z,2.00
2023-05-03T07:39:07.867Z,1.00
2023-05-03T07:41:34.510Z,2.00
2023-05-03T07:44:01.058Z,1.00
2023-05-03T07:46:27.694Z,1.33
2023-05-03T07:48:54.236Z,1.00
2023-05-03T07:51:21.247Z,1.00
2023-05-03T07:53:47.898Z,2.00
2023-05-03T07:56:14.439Z,2.00
2023-05-03T07:58:41.710Z,2.00
2023-05-03T08:01:09.296Z,2.00
2023-05-03T08:03:36.225Z,1.33
2023-05-03T08:06:03.188Z,2.00
2023-05-03T08:08:31.584Z,2.00
2023-05-03T08:10:58.104Z,1.00
2023-05-03T08:13:25.195Z,2.00
2023-05-03T08:15:51.868Z,1.50
2023-05-03T08:18:19.529Z,3.00
2023-05-03T08:20:48.468Z,2.00
2023-05-03T08:23:18.553Z,1.00
2023-05-03T08:25:45.276Z,2.00
2023-05-03T08:28:11.839Z,2.00
2023-05-03T08:30:38.452Z,2.00
2023-05-03T08:33:05.106Z,1.50
2023-05-03T08:35:31.905Z,2.00
2023-05-03T08:37:58.983Z,2.00
2023-05-03T08:40:27.332Z,1.67
2023-05-03T08:42:54.898Z,2.00
2023-05-03T08:45:21.714Z,2.00
2023-05-03T08:47:53.355Z,2.67
2023-05-03T08:50:20.328Z,2.00
2023-05-03T08:52:47.211Z,2.00
2023-05-03T08:55:14.007Z,2.00
2023-05-03T08:57:40.990Z,2.00
2023-05-03T09:00:10.276Z,2.00
2023-05-03T09:02:39.079Z,1.25
2023-05-03T09:05:32.301Z,2.00
2023-05-03T09:08:03.134Z,1.00
2023-05-03T09:10:30.661Z,1.00
2023-05-03T09:12:58.990Z,1.00
2023-05-03T09:15:26.204Z,3.00
2023-05-03T09:18:05.996Z,2.00
2023-05-03T09:20:36.723Z,1.00
2023-05-03T09:23:03.505Z,2.00
2023-05-03T09:25:52.076Z,2.00
2023-05-03T09:28:19.760Z,1.00
2023-05-03T09:30:47.372Z,2.00
2023-05-03T09:33:21.713Z,2.00
2023-05-03T09:36:04.104Z,2.00
2023-05-03T09:38:32.230Z,2.00
2023-05-03T09:41:00.889Z,1.25
2023-05-03T09:43:27.595Z,1.00
2023-05-03T09:46:10.091Z,2.00
2023-05-03T09:48:37.344Z,2.00
2023-05-03T09:51:07.430Z,1.00
2023-05-03T09:53:35.457Z,2.00
2023-05-03T09:56:03.190Z,2.00
2023-05-03T09:58:34.302Z,2.00
2023-05-03T10:01:00.829Z,2.00
2023-05-03T10:03:44.399Z,5.00
2023-05-03T10:06:15.907Z,6.50
2023-05-03T10:08:47.515Z,6.00
2023-05-03T10:11:14.358Z,7.00
2023-05-03T10:13:40.993Z,7.00
2023-05-03T10:16:13.617Z,6.33
2023-05-03T10:18:45.552Z,7.00
2023-05-03T10:21:16.147Z,6.00
2023-05-03T10:24:12.654Z,6.00
2023-05-03T10:26:44.103Z,8.00
2023-05-03T10:29:45.460Z,8.00
2023-05-03T10:32:34.288Z,8.00
2023-05-03T10:35:06.554Z,8.00
2023-05-03T10:37:37.647Z,10.00
2023-05-03T10:40:09.883Z,13.00
2023-05-03T10:42:37.775Z,9.00
2023-05-03T10:45:08.139Z,9.00
2023-05-03T10:47:34.787Z,10.00
2023-05-03T10:50:16.406Z,11.50
2023-05-03T10:52:43.439Z,8.00
2023-05-03T10:55:09.957Z,9.00
2023-05-03T10:57:40.387Z,8.00
2023-05-03T11:00:28.995Z,9.33
2023-05-03T11:03:32.769Z,7.50
2023-05-03T11:05:59.421Z,10.67
2023-05-03T11:08:27.269Z,6.67
2023-05-03T11:10:59.084Z,10.00
2023-05-03T11:13:26.331Z,8.50
2023-05-03T11:15:54.072Z,8.00
2023-05-03T11:18:20.870Z,6.00
2023-05-03T11:20:47.659Z,8.00
2023-05-03T11:23:14.520Z,7.50
2023-05-03T11:25:41.173Z,8.00
2023-05-03T11:28:08.031Z,7.00
2023-05-03T11:30:34.570Z,7.00
2023-05-03T11:33:01.538Z,7.00
2023-05-03T11:35:29.175Z,7.00
2023-05-03T11:37:56.393Z,7.00
2023-05-03T11:40:23.045Z,7.00
2023-05-03T11:42:50.557Z,7.00
2023-05-03T11:45:18.594Z,6.00
2023-05-03T11:47:46.843Z,5.00
2023-05-03T11:50:13.452Z,4.33
2023-05-03T11:52:41.007Z,6.00
2023-05-03T11:55:08.797Z,5.00
2023-05-03T11:57:36.214Z,6.00
2023-05-03T12:00:20.303Z,5.00
2023-05-03T12:02:50.416Z,4.00
2023-05-03T12:05:18.319Z,5.00
2023-05-03T12:07:46.244Z,5.00
2023-05-03T12:10:23.002Z,4.00
2023-05-03T12:12:57.103Z,6.00
2023-05-03T12:15:37.512Z,3.00
2023-05-03T12:18:09.799Z,4.00
2023-05-03T12:23:09.340Z,5.00
2023-05-03T12:30:35.650Z,3.00
2023-05-03T12:33:04.660Z,3.00
2023-05-03T12:35:34.223Z,4.00
2023-05-03T12:38:04.945Z,3.00
2023-05-03T12:40:34.812Z,3.00
2023-05-03T12:43:02.820Z,4.00
2023-05-03T12:45:34.278Z,3.67
2023-05-03T12:48:02.240Z,2.00
2023-05-03T12:50:31.901Z,3.00
2023-05-03T12:53:01.895Z,2.00
2023-05-03T12:55:34.636Z,3.50
2023-05-03T13:00:35.805Z,3.00
2023-05-03T13:05:36.157Z,3.00
2023-05-03T13:08:09.353Z,3.00
2023-05-03T13:10:38.067Z,2.00
2023-05-03T13:13:04.811Z,2.00
2023-05-03T13:15:31.340Z,2.00
2023-05-03T13:18:00.955Z,3.00
2023-05-03T13:20:28.482Z,3.00
2023-05-03T13:22:55.542Z,2.00
2023-05-03T13:25:22.225Z,1.00
2023-05-03T13:27:52.992Z,1.00
2023-05-03T13:30:21.000Z,1.00
2023-05-03T13:32:47.759Z,2.00
2023-05-03T13:35:14.559Z,2.00
2023-05-03T13:37:41.063Z,1.00
2023-05-03T13:40:09.298Z,2.00
2023-05-03T13:42:35.822Z,2.67
2023-05-03T13:45:03.232Z,2.00
2023-05-03T13:47:53.000Z,2.00
2023-05-03T13:50:17.601Z,1.75
2023-05-03T13:52:44.213Z,1.00
2023-05-03T13:55:11.046Z,1.00
2023-05-03T13:57:37.711Z,2.00
2023-05-03T14:00:06.440Z,2.75
2023-05-03T14:02:33.466Z,2.00
2023-05-03T14:05:00.289Z,1.25
2023-05-03T14:07:27.332Z,1.00
2023-05-03T14:09:53.978Z,1.00
2023-05-03T14:12:20.599Z,1.75
2023-05-03T14:14:47.467Z,1.00
2023-05-03T14:17:14.153Z,2.00
2023-05-03T14:19:41.154Z,1.25
2023-05-03T14:22:08.156Z,1.00
2023-05-03T14:24:35.931Z,1.00
2023-05-03T14:27:03.041Z,1.00
2023-05-03T14:29:30.156Z,1.00
2023-05-03T14:31:57.037Z,1.00
2023-05-03T14:34:23.749Z,1.00
2023-05-03T14:36:50.534Z,1.00
2023-05-03T14:39:17.024Z,1.00
2023-05-03T14:41:44.027Z,1.00
2023-05-03T14:44:10.994Z,1.00
2023-05-03T14:46:37.787Z,1.00
2023-05-03T14:49:04.986Z,1.00
2023-05-03T14:51:32.198Z,1.00
2023-05-03T14:53:58.860Z,1.00
2023-05-03T14:56:25.426Z,1.00
2023-05-03T14:58:52.241Z,1.00
2023-05-03T15:01:19.609Z,1.00
2023-05-03T15:03:46.297Z,0.25
2023-05-03T15:06:12.981Z,1.00
2023-05-03T15:08:39.542Z,0.67
2023-05-03T15:11:07.188Z,1.00
2023-05-03T15:13:34.288Z,0.00
2023-05-03T15:16:01.011Z,1.00
2023-05-03T15:18:28.283Z,1.00
2023-05-03T15:20:55.756Z,0.00
2023-05-03T15:23:22.351Z,1.00
2023-05-03T15:25:48.970Z,1.00
2023-05-03T15:28:15.829Z,0.00
2023-05-03T15:30:42.444Z,1.50
2023-05-03T15:33:11.389Z,1.00
2023-05-03T15:35:39.608Z,0.67
2023-05-03T15:38:07.005Z,1.00
2023-05-03T15:40:33.578Z,1.00
2023-05-03T15:43:00.570Z,0.75
2023-05-03T15:45:27.796Z,1.00
2023-05-03T15:47:58.199Z,1.00
2023-05-03T15:50:25.014Z,1.00
2023-05-03T15:52:51.914Z,1.00
2023-05-03T15:55:18.911Z,1.00
2023-05-03T15:57:45.679Z,0.25
2023-05-03T16:00:15.771Z,1.00
2023-05-03T16:05:09.766Z,1.00
2023-05-03T16:07:36.296Z,1.00
2023-05-03T16:10:03.314Z,1.00
2023-05-03T16:12:30.929Z,0.00
2023-05-03T16:14:57.550Z,1.00
2023-05-03T16:17:25.014Z,1.00
2023-05-03T16:19:51.533Z,0.00
2023-05-03T16:22:18.347Z,0.00
2023-05-03T16:24:46.357Z,0.50
2023-05-03T16:27:13.289Z,0.33
2023-05-03T16:29:40.211Z,0.00
2023-05-03T16:32:09.164Z,0.00
2023-05-03T16:34:36.544Z,0.00
2023-05-03T16:37:03.817Z,1.00
2023-05-03T16:39:30.769Z,1.00
2023-05-03T16:41:57.293Z,1.00
2023-05-03T16:44:24.409Z,1.00
2023-05-03T16:46:51.248Z,1.25
2023-05-03T16:49:17.801Z,1.00
2023-05-03T16:51:44.363Z,1.00
2023-05-03T16:54:12.294Z,0.67
2023-05-03T16:56:39.335Z,1.00
2023-05-03T16:59:06.490Z,0.00
2023-05-03T17:01:33.740Z,1.00
2023-05-03T17:04:00.532Z,0.00
2023-05-03T17:06:28.057Z,1.00
2023-05-03T17:08:54.803Z,1.00
2023-05-03T17:11:21.908Z,1.00
2023-05-03T17:13:48.873Z,1.00
2023-05-03T17:16:15.801Z,0.00
2023-05-03T17:18:42.477Z,0.00
2023-05-03T17:21:10.976Z,1.00
2023-05-03T17:23:38.054Z,1.00
2023-05-03T17:26:05.899Z,0.33
2023-05-03T17:28:32.378Z,1.00
2023-05-03T17:30:59.005Z,1.00
2023-05-03T17:33:25.679Z,1.00
2023-05-03T17:35:52.970Z,0.00
2023-05-03T17:38:19.826Z,0.00
2023-05-03T17:40:46.672Z,0.00
2023-05-03T17:43:15.872Z,0.00
2023-05-03T17:45:43.242Z,1.00
2023-05-03T17:48:10.772Z,0.75
2023-05-03T17:50:37.724Z,0.00
2023-05-03T17:53:04.445Z,1.00
2023-05-03T17:55:37.433Z,1.00
2023-05-03T17:58:05.513Z,1.00
2023-05-03T18:00:32.264Z,0.00
2023-05-03T18:02:59.099Z,0.50
2023-05-03T18:05:26.843Z,1.00
2023-05-03T18:07:53.516Z,1.00
2023-05-03T18:10:20.692Z,0.00
2023-05-03T18:12:47.708Z,0.00
2023-05-03T18:15:14.772Z,0.67
2023-05-03T18:17:41.475Z,1.00
2023-05-03T18:20:08.958Z,0.25
2023-05-03T18:22:36.825Z,0.50
2023-05-03T18:25:06.636Z,1.00
2023-05-03T18:27:35.942Z,0.25
2023-05-03T18:30:06.087Z,0.00
2023-05-03T18:32:33.017Z,1.00
2023-05-03T18:35:00.141Z,0.00
2023-05-03T18:37:27.103Z,1.00
2023-05-03T18:39:53.991Z,1.00
2023-05-03T18:42:21.796Z,1.00
2023-05-03T18:44:48.674Z,0.00
2023-05-03T18:47:15.979Z,1.00
2023-05-03T18:49:46.293Z,0.00
2023-05-03T18:52:12.876Z,0.50
2023-05-03T18:54:39.406Z,1.00
2023-05-03T18:57:06.005Z,1.00
2023-05-03T18:59:32.530Z,0.33
2023-05-03T19:01:59.333Z,0.00
2023-05-03T19:04:26.058Z,1.00
2023-05-03T19:06:52.699Z,1.00
2023-05-03T19:09:19.482Z,1.00
2023-05-03T19:11:46.857Z,1.00
2023-05-03T19:14:13.444Z,1.00
2023-05-03T19:16:40.397Z,0.50
2023-05-03T19:19:07.179Z,1.00
2023-05-03T19:21:37.215Z,0.00
2023-05-03T19:24:04.533Z,0.50
2023-05-03T19:26:31.520Z,0.75
2023-05-03T19:28:58.024Z,1.00
2023-05-03T19:31:25.084Z,1.00
2023-05-03T19:33:52.118Z,1.00
2023-05-03T19:36:18.794Z,1.00
2023-05-03T19:38:45.774Z,1.00
2023-05-03T19:41:12.789Z,0.00
2023-05-03T19:43:39.920Z,1.00
2023-05-03T19:46:06.771Z,1.00
2023-05-03T19:48:33.639Z,1.00
2023-05-03T19:51:00.381Z,1.00
2023-05-03T19:53:27.665Z,1.00
2023-05-03T19:56:02.114Z,1.00
2023-05-03T19:58:28.659Z,1.00
2023-05-03T20:00:57.204Z,1.00
2023-05-03T20:03:24.310Z,1.00
2023-05-03T20:05:51.044Z,0.75
2023-05-03T20:08:17.704Z,0.00
2023-05-03T20:10:46.319Z,1.00
2023-05-03T20:13:13.763Z,1.00
2023-05-03T20:15:41.161Z,1.00
2023-05-03T20:18:07.824Z,2.00
2023-05-03T20:20:34.452Z,1.00
2023-05-03T20:23:00.974Z,1.00
2023-05-03T20:25:27.518Z,0.00
2023-05-03T20:27:54.115Z,1.00
2023-05-03T20:30:20.822Z,0.00
2023-05-03T20:32:47.821Z,1.00
2023-05-03T20:35:14.654Z,1.00
2023-05-03T20:37:41.250Z,1.00
2023-05-03T20:40:09.544Z,1.00
2023-05-03T20:42:36.237Z,0.75
2023-05-03T20:45:03.289Z,1.00
2023-05-03T20:47:30.068Z,1.00
2023-05-03T20:49:56.678Z,1.00
2023-05-03T20:52:23.448Z,1.00
2023-05-03T20:54:51.037Z,0.00
2023-05-03T20:57:17.710Z,0.00
2023-05-03T20:59:44.662Z,0.00
2023-05-03T21:02:11.878Z,1.00
2023-05-03T21:04:38.629Z,1.00
2023-05-03T21:07:05.308Z,0.00
2023-05-03T21:09:32.568Z,1.00
2023-05-03T21:11:59.154Z,1.00
2023-05-03T21:14:25.814Z,1.00
2023-05-03T21:16:52.435Z,1.00
2023-05-03T21:19:19.064Z,1.00
2023-05-03T21:21:45.645Z,1.00
2023-05-03T21:24:12.224Z,1.00
2023-05-03T21:26:39.048Z,1.00
2023-05-03T21:29:05.784Z,1.00
2023-05-03T21:31:32.495Z,1.00
2023-05-03T21:33:59.686Z,1.00
2023-05-03T21:36:26.358Z,0.00
2023-05-03T21:38:53.172Z,1.00
2023-05-03T21:41:19.958Z,0.50
2023-05-03T21:43:46.745Z,1.00
2023-05-03T21:46:13.758Z,1.00
2023-05-03T21:48:40.607Z,0.50
2023-05-03T21:51:07.958Z,0.00
2023-05-03T21:53:35.048Z,1.00
2023-05-03T21:56:01.975Z,1.00
2023-05-03T21:58:28.701Z,1.00
2023-05-03T22:00:55.316Z,1.00
2023-05-03T22:03:22.064Z,1.00
2023-05-03T22:05:50.647Z,1.00
2023-05-03T22:08:17.922Z,1.00
2023-05-03T22:10:45.132Z,0.00
2023-05-03T22:13:11.916Z,1.00
2023-05-03T22:15:38.646Z,1.00
2023-05-03T22:18:05.523Z,1.00
2023-05-03T22:20:32.512Z,1.00
2023-05-03T22:22:59.189Z,1.00
2023-05-03T22:25:26.802Z,1.00
2023-05-03T22:27:53.562Z,1.00
2023-05-03T22:30:20.578Z,0.50
2023-05-03T22:32:47.377Z,0.00
2023-05-03T22:35:14.351Z,1.00
2023-05-03T22:37:41.034Z,1.00
2023-05-03T22:40:08.838Z,0.00
2023-05-03T22:42:35.521Z,1.00
2023-05-03T22:45:02.843Z,1.00
2023-05-03T22:47:29.617Z,1.00
2023-05-03T22:49:56.311Z,1.00
2023-05-03T22:52:22.898Z,1.00
2023-05-03T22:54:54.359Z,1.00
2023-05-03T22:57:20.906Z,0.00
2023-05-03T22:59:47.547Z,1.00
2023-05-03T23:02:14.190Z,0.00
2023-05-03T23:04:40.852Z,0.25
2023-05-03T23:07:07.495Z,0.00
2023-05-03T23:09:34.054Z,0.00
2023-05-03T23:12:00.900Z,0.00
2023-05-03T23:14:27.515Z,1.00
2023-05-03T23:16:54.196Z,1.00
2023-05-03T23:19:20.826Z,0.75
2023-05-03T23:21:47.520Z,1.00
2023-05-03T23:24:14.318Z,1.00
2023-05-03T23:26:40.997Z,1.00
2023-05-03T23:29:08.876Z,1.00
2023-05-03T23:31:35.978Z,1.00
2023-05-03T23:34:04.408Z,0.00
2023-05-03T23:36:32.125Z,1.00
2023-05-03T23:38:59.022Z,1.00
2023-05-03T23:41:26.016Z,0.00
2023-05-03T23:43:52.753Z,1.00
2023-05-03T23:46:19.427Z,1.00
2023-05-03T23:48:46.203Z,1.25
2023-05-03T23:51:12.849Z,1.00
2023-05-03T23:53:39.577Z,0.25
2023-05-03T23:56:06.511Z,1.00
2023-05-03T23:58:33.248Z,1.00
